sensor_id;sensor_type;location;lat;lon;timestamp;pressure;altitude;pressure_sealevel;temperature;humidity
80976;BME280;70437;49.466;11.002;2023-12-20T00:00:20;98088.13;;;6.55;100.00
80976;BME280;70437;49.466;11.002;2023-12-20T00:02:49;98081.59;;;6.58;100.00
80976;BME280;70437;49.466;11.002;2023-12-20T00:05:17;98083.00;;;6.54;100.00
80976;BME280;70437;49.466;11.002;2023-12-20T00:07:46;98078.22;;;6.36;100.00
80976;BME280;70437;49.466;11.002;2023-12-20T00:10:15;98082.19;;;6.53;100.00
80976;BME280;70437;49.466;11.002;2023-12-20T00:12:46;98077.03;;;6.45;100.00
80976;BME280;70437;49.466;11.002;2023-12-20T00:15:14;98076.00;;;6.40;100.00
80976;BME280;70437;49.466;11.002;2023-12-20T00:17:43;98075.94;;;6.26;100.00
80976;BME280;70437;49.466;11.002;2023-12-20T00:20:12;98069.81;;;6.32;100.00
80976;BME280;70437;49.466;11.002;2023-12-20T00:22:41;98072.50;;;6.39;100.00
80976;BME280;70437;49.466;11.002;2023-12-20T00:25:10;98058.13;;;6.27;100.00
80976;BME280;70437;49.466;11.002;2023-12-20T00:27:39;98065.31;;;6.33;100.00
80976;BME280;70437;49.466;11.002;2023-12-20T00:30:10;98058.72;;;6.22;100.00
80976;BME280;70437;49.466;11.002;2023-12-20T00:32:39;98054.88;;;6.31;100.00
80976;BME280;70437;49.466;11.002;2023-12-20T00:35:14;98052.63;;;6.35;100.00
80976;BME280;70437;49.466;11.002;2023-12-20T00:37:43;98049.50;;;6.18;100.00
80976;BME280;70437;49.466;11.002;2023-12-20T00:40:12;98037.88;;;6.32;100.00
80976;BME280;70437;49.466;11.002;2023-12-20T00:42:41;98045.25;;;6.30;100.00
80976;BME280;70437;49.466;11.002;2023-12-20T00:45:11;98044.22;;;6.31;100.00
80976;BME280;70437;49.466;11.002;2023-12-20T00:47:40;98041.94;;;6.28;100.00
80976;BME280;70437;49.466;11.002;2023-12-20T00:50:09;98038.31;;;6.36;100.00
80976;BME280;70437;49.466;11.002;2023-12-20T00:52:38;98034.44;;;6.39;100.00
80976;BME280;70437;49.466;11.002;2023-12-20T00:55:07;98028.06;;;6.33;100.00
80976;BME280;70437;49.466;11.002;2023-12-20T00:57:36;98038.91;;;6.38;100.00
80976;BME280;70437;49.466;11.002;2023-12-20T01:00:06;98034.19;;;6.27;100.00
80976;BME280;70437;49.466;11.002;2023-12-20T01:02:38;98037.81;;;6.19;100.00
80976;BME280;70437;49.466;11.002;2023-12-20T01:05:07;98029.66;;;6.21;100.00
80976;BME280;70437;49.466;11.002;2023-12-20T01:07:36;98034.78;;;6.29;100.00
80976;BME280;70437;49.466;11.002;2023-12-20T01:10:07;98032.53;;;6.26;100.00
80976;BME280;70437;49.466;11.002;2023-12-20T01:12:36;98025.16;;;6.21;100.00
80976;BME280;70437;49.466;11.002;2023-12-20T01:15:05;98018.41;;;6.25;100.00
80976;BME280;70437;49.466;11.002;2023-12-20T01:17:34;98012.25;;;6.18;100.00
80976;BME280;70437;49.466;11.002;2023-12-20T01:20:06;98021.69;;;6.27;100.00
80976;BME280;70437;49.466;11.002;2023-12-20T01:22:35;98024.94;;;6.23;100.00
80976;BME280;70437;49.466;11.002;2023-12-20T01:25:04;98014.50;;;6.21;100.00
80976;BME280;70437;49.466;11.002;2023-12-20T01:27:35;98021.03;;;6.12;100.00
80976;BME280;70437;49.466;11.002;2023-12-20T01:30:05;98005.06;;;6.12;100.00
80976;BME280;70437;49.466;11.002;2023-12-20T01:32:34;98010.97;;;6.07;100.00
80976;BME280;70437;49.466;11.002;2023-12-20T01:35:05;97998.69;;;6.06;100.00
80976;BME280;70437;49.466;11.002;2023-12-20T01:37:34;98002.41;;;6.12;100.00
80976;BME280;70437;49.466;11.002;2023-12-20T01:40:03;98003.00;;;6.14;100.00
80976;BME280;70437;49.466;11.002;2023-12-20T01:42:32;98008.53;;;6.13;100.00
80976;BME280;70437;49.466;11.002;2023-12-20T01:45:00;98002.16;;;6.07;100.00
80976;BME280;70437;49.466;11.002;2023-12-20T01:47:30;97993.13;;;6.01;100.00
80976;BME280;70437;49.466;11.002;2023-12-20T01:49:59;98001.53;;;6.05;100.00
80976;BME280;70437;49.466;11.002;2023-12-20T01:52:29;98002.16;;;6.07;100.00
80976;BME280;70437;49.466;11.002;2023-12-20T01:54:58;98000.69;;;5.98;100.00
80976;BME280;70437;49.466;11.002;2023-12-20T01:57:30;98003.78;;;6.01;100.00
80976;BME280;70437;49.466;11.002;2023-12-20T01:59:59;98002.72;;;5.96;100.00
80976;BME280;70437;49.466;11.002;2023-12-20T02:02:29;97994.31;;;5.92;100.00
80976;BME280;70437;49.466;11.002;2023-12-20T02:04:58;98000.09;;;6.02;100.00
80976;BME280;70437;49.466;11.002;2023-12-20T02:07:29;97999.63;;;5.92;100.00
80976;BME280;70437;49.466;11.002;2023-12-20T02:09:59;98006.78;;;5.92;100.00
80976;BME280;70437;49.466;11.002;2023-12-20T02:12:28;97998.94;;;5.83;100.00
80976;BME280;70437;49.466;11.002;2023-12-20T02:14:57;97993.84;;;5.89;100.00
80976;BME280;70437;49.466;11.002;2023-12-20T02:17:25;97993.84;;;5.82;100.00
80976;BME280;70437;49.466;11.002;2023-12-20T02:19:54;97991.94;;;5.76;100.00
80976;BME280;70437;49.466;11.002;2023-12-20T02:22:26;97995.84;;;5.73;100.00
80976;BME280;70437;49.466;11.002;2023-12-20T02:24:55;97996.69;;;5.80;100.00
80976;BME280;70437;49.466;11.002;2023-12-20T02:27:24;97970.38;;;5.57;100.00
80976;BME280;70437;49.466;11.002;2023-12-20T02:29:53;97991.03;;;5.62;100.00
80976;BME280;70437;49.466;11.002;2023-12-20T02:32:22;97981.19;;;5.49;100.00
80976;BME280;70437;49.466;11.002;2023-12-20T02:34:54;97989.38;;;5.54;100.00
80976;BME280;70437;49.466;11.002;2023-12-20T02:37:25;97994.84;;;5.46;100.00
80976;BME280;70437;49.466;11.002;2023-12-20T02:39:54;97981.94;;;5.43;100.00
80976;BME280;70437;49.466;11.002;2023-12-20T02:42:23;97980.81;;;5.31;100.00
80976;BME280;70437;49.466;11.002;2023-12-20T02:44:51;97982.88;;;5.29;100.00
80976;BME280;70437;49.466;11.002;2023-12-20T02:47:20;97982.09;;;5.35;100.00
80976;BME280;70437;49.466;11.002;2023-12-20T02:49:49;97984.06;;;5.26;100.00
80976;BME280;70437;49.466;11.002;2023-12-20T02:52:18;97996.88;;;5.16;100.00
80976;BME280;70437;49.466;11.002;2023-12-20T02:54:48;97994.09;;;5.31;100.00
80976;BME280;70437;49.466;11.002;2023-12-20T02:57:17;97989.34;;;5.20;100.00
80976;BME280;70437;49.466;11.002;2023-12-20T02:59:45;97991.78;;;5.21;100.00
80976;BME280;70437;49.466;11.002;2023-12-20T03:02:14;97988.69;;;5.18;100.00
80976;BME280;70437;49.466;11.002;2023-12-20T03:04:43;97982.41;;;5.19;100.00
80976;BME280;70437;49.466;11.002;2023-12-20T03:07:12;97980.72;;;5.18;100.00
80976;BME280;70437;49.466;11.002;2023-12-20T03:09:42;97982.97;;;5.14;100.00
80976;BME280;70437;49.466;11.002;2023-12-20T03:12:32;97974.31;;;5.05;100.00
80976;BME280;70437;49.466;11.002;2023-12-20T03:15:01;97987.34;;;5.00;100.00
80976;BME280;70437;49.466;11.002;2023-12-20T03:17:30;97984.84;;;5.20;100.00
80976;BME280;70437;49.466;11.002;2023-12-20T03:19:59;97980.22;;;5.01;100.00
80976;BME280;70437;49.466;11.002;2023-12-20T03:22:28;97977.94;;;4.98;100.00
80976;BME280;70437;49.466;11.002;2023-12-20T03:24:56;97981.28;;;5.06;100.00
80976;BME280;70437;49.466;11.002;2023-12-20T03:27:25;97983.81;;;4.93;100.00
80976;BME280;70437;49.466;11.002;2023-12-20T03:29:56;97989.50;;;4.90;100.00
80976;BME280;70437;49.466;11.002;2023-12-20T03:32:24;97993.81;;;4.91;100.00
80976;BME280;70437;49.466;11.002;2023-12-20T03:34:53;97988.63;;;4.83;100.00
80976;BME280;70437;49.466;11.002;2023-12-20T03:37:23;97986.84;;;4.90;100.00
80976;BME280;70437;49.466;11.002;2023-12-20T03:39:51;97983.78;;;4.87;100.00
80976;BME280;70437;49.466;11.002;2023-12-20T03:42:20;97983.84;;;5.00;100.00
80976;BME280;70437;49.466;11.002;2023-12-20T03:44:49;97993.38;;;4.88;100.00
80976;BME280;70437;49.466;11.002;2023-12-20T03:47:19;97995.38;;;5.07;100.00
80976;BME280;70437;49.466;11.002;2023-12-20T03:49:48;97991.31;;;5.11;100.00
80976;BME280;70437;49.466;11.002;2023-12-20T03:52:17;98006.44;;;5.11;100.00
80976;BME280;70437;49.466;11.002;2023-12-20T03:54:46;98005.19;;;4.85;100.00
80976;BME280;70437;49.466;11.002;2023-12-20T03:57:15;98007.84;;;4.85;100.00
80976;BME280;70437;49.466;11.002;2023-12-20T03:59:43;97994.63;;;4.92;100.00
80976;BME280;70437;49.466;11.002;2023-12-20T04:02:12;97997.41;;;5.05;100.00
80976;BME280;70437;49.466;11.002;2023-12-20T04:04:42;97994.63;;;4.92;100.00
80976;BME280;70437;49.466;11.002;2023-12-20T04:07:11;98006.31;;;4.76;100.00
80976;BME280;70437;49.466;11.002;2023-12-20T04:09:40;97994.63;;;4.92;100.00
80976;BME280;70437;49.466;11.002;2023-12-20T04:12:09;97987.28;;;4.94;100.00
80976;BME280;70437;49.466;11.002;2023-12-20T04:14:39;98000.06;;;4.84;100.00
80976;BME280;70437;49.466;11.002;2023-12-20T04:17:07;98002.53;;;4.85;100.00
80976;BME280;70437;49.466;11.002;2023-12-20T04:19:36;98003.03;;;4.74;100.00
80976;BME280;70437;49.466;11.002;2023-12-20T04:22:06;98005.38;;;4.84;100.00
80976;BME280;70437;49.466;11.002;2023-12-20T04:24:35;97999.25;;;4.83;100.00
80976;BME280;70437;49.466;11.002;2023-12-20T04:27:04;97995.69;;;4.76;100.00
80976;BME280;70437;49.466;11.002;2023-12-20T04:29:33;98006.56;;;4.81;100.00
80976;BME280;70437;49.466;11.002;2023-12-20T04:32:02;97993.25;;;4.74;100.00
80976;BME280;70437;49.466;11.002;2023-12-20T04:34:30;97996.63;;;4.68;100.00
80976;BME280;70437;49.466;11.002;2023-12-20T04:36:59;97992.69;;;4.79;100.00
80976;BME280;70437;49.466;11.002;2023-12-20T04:39:30;98005.50;;;4.75;100.00
80976;BME280;70437;49.466;11.002;2023-12-20T04:42:00;98002.97;;;4.67;100.00
80976;BME280;70437;49.466;11.002;2023-12-20T04:44:29;98002.97;;;4.67;100.00
80976;BME280;70437;49.466;11.002;2023-12-20T04:46:58;98001.13;;;4.68;100.00
80976;BME280;70437;49.466;11.002;2023-12-20T04:49:27;97993.13;;;4.82;100.00
80976;BME280;70437;49.466;11.002;2023-12-20T04:51:56;98005.00;;;4.65;100.00
80976;BME280;70437;49.466;11.002;2023-12-20T04:54:24;98004.31;;;4.78;100.00
80976;BME280;70437;49.466;11.002;2023-12-20T04:56:55;98005.00;;;4.65;100.00
80976;BME280;70437;49.466;11.002;2023-12-20T04:59:24;98006.56;;;4.81;100.00
80976;BME280;70437;49.466;11.002;2023-12-20T05:01:53;98009.34;;;4.73;100.00
80976;BME280;70437;49.466;11.002;2023-12-20T05:04:22;98015.22;;;4.68;100.00
80976;BME280;70437;49.466;11.002;2023-12-20T05:06:51;97997.84;;;4.66;100.00
80976;BME280;70437;49.466;11.002;2023-12-20T05:09:20;98011.03;;;4.59;100.00
80976;BME280;70437;49.466;11.002;2023-12-20T05:11:48;98023.19;;;4.68;100.00
80976;BME280;70437;49.466;11.002;2023-12-20T05:14:19;98008.34;;;4.74;100.00
80976;BME280;70437;49.466;11.002;2023-12-20T05:16:47;98033.56;;;4.85;100.00
80976;BME280;70437;49.466;11.002;2023-12-20T05:19:16;98039.03;;;4.62;100.00
80976;BME280;70437;49.466;11.002;2023-12-20T05:21:45;98036.34;;;4.76;100.00
80976;BME280;70437;49.466;11.002;2023-12-20T05:24:14;98031.78;;;4.70;100.00
80976;BME280;70437;49.466;11.002;2023-12-20T05:26:42;98037.56;;;4.74;100.00
80976;BME280;70437;49.466;11.002;2023-12-20T05:29:11;98035.06;;;4.72;100.00
80976;BME280;70437;49.466;11.002;2023-12-20T05:31:41;98033.09;;;4.81;100.00
80976;BME280;70437;49.466;11.002;2023-12-20T05:34:10;98044.84;;;4.72;100.00
80976;BME280;70437;49.466;11.002;2023-12-20T05:36:39;98047.72;;;4.70;100.00
80976;BME280;70437;49.466;11.002;2023-12-20T05:39:08;98043.03;;;4.72;100.00
80976;BME280;70437;49.466;11.002;2023-12-20T05:41:37;98043.09;;;4.57;100.00
80976;BME280;70437;49.466;11.002;2023-12-20T05:44:05;98040.06;;;4.61;100.00
80976;BME280;70437;49.466;11.002;2023-12-20T05:46:34;98034.34;;;4.64;100.00
80976;BME280;70437;49.466;11.002;2023-12-20T05:49:05;98043.84;;;4.73;100.00
80976;BME280;70437;49.466;11.002;2023-12-20T05:51:34;98053.03;;;4.70;100.00
80976;BME280;70437;49.466;11.002;2023-12-20T05:54:03;98055.41;;;4.65;100.00
80976;BME280;70437;49.466;11.002;2023-12-20T05:56:31;98055.22;;;4.67;100.00
80976;BME280;70437;49.466;11.002;2023-12-20T05:59:13;98065.22;;;4.65;100.00
80976;BME280;70437;49.466;11.002;2023-12-20T06:01:41;98059.75;;;4.51;100.00
80976;BME280;70437;49.466;11.002;2023-12-20T06:04:12;98065.53;;;4.76;100.00
80976;BME280;70437;49.466;11.002;2023-12-20T06:06:41;98054.16;;;4.61;100.00
80976;BME280;70437;49.466;11.002;2023-12-20T06:09:11;98068.56;;;4.73;100.00
80976;BME280;70437;49.466;11.002;2023-12-20T06:11:42;98061.03;;;4.77;100.00
80976;BME280;70437;49.466;11.002;2023-12-20T06:14:11;98070.38;;;4.73;100.00
80976;BME280;70437;49.466;11.002;2023-12-20T06:16:41;98076.09;;;4.70;100.00
80976;BME280;70437;49.466;11.002;2023-12-20T06:19:15;98078.47;;;4.65;100.00
80976;BME280;70437;49.466;11.002;2023-12-20T06:21:49;98093.53;;;4.79;100.00
80976;BME280;70437;49.466;11.002;2023-12-20T06:24:19;98095.38;;;4.78;100.00
80976;BME280;70437;49.466;11.002;2023-12-20T06:26:49;98094.72;;;4.76;100.00
80976;BME280;70437;49.466;11.002;2023-12-20T06:29:17;98114.69;;;4.72;100.00
80976;BME280;70437;49.466;11.002;2023-12-20T06:31:48;98104.41;;;4.84;100.00
80976;BME280;70437;49.466;11.002;2023-12-20T06:34:18;98106.41;;;4.82;100.00
80976;BME280;70437;49.466;11.002;2023-12-20T06:36:47;98104.41;;;4.84;100.00
80976;BME280;70437;49.466;11.002;2023-12-20T06:39:16;98107.38;;;4.74;100.00
80976;BME280;70437;49.466;11.002;2023-12-20T06:41:45;98111.81;;;4.89;100.00
80976;BME280;70437;49.466;11.002;2023-12-20T06:44:13;98105.88;;;4.87;100.00
80976;BME280;70437;49.466;11.002;2023-12-20T06:46:43;98117.44;;;4.79;100.00
80976;BME280;70437;49.466;11.002;2023-12-20T06:49:11;98109.91;;;4.82;100.00
80976;BME280;70437;49.466;11.002;2023-12-20T06:51:42;98118.69;;;4.83;100.00
80976;BME280;70437;49.466;11.002;2023-12-20T06:54:10;98119.25;;;4.78;100.00
80976;BME280;70437;49.466;11.002;2023-12-20T06:56:39;98105.09;;;4.71;100.00
80976;BME280;70437;49.466;11.002;2023-12-20T07:03:06;98134.69;;;4.90;100.00
80976;BME280;70437;49.466;11.002;2023-12-20T07:05:37;98133.56;;;4.99;100.00
80976;BME280;70437;49.466;11.002;2023-12-20T07:08:16;98150.66;;;5.11;100.00
80976;BME280;70437;49.466;11.002;2023-12-20T07:10:48;98161.09;;;5.13;100.00
80976;BME280;70437;49.466;11.002;2023-12-20T07:13:18;98156.88;;;5.18;100.00
80976;BME280;70437;49.466;11.002;2023-12-20T07:15:48;98172.25;;;5.23;100.00
80976;BME280;70437;49.466;11.002;2023-12-20T07:18:18;98168.00;;;5.28;100.00
80976;BME280;70437;49.466;11.002;2023-12-20T07:20:51;98170.66;;;5.28;100.00
80976;BME280;70437;49.466;11.002;2023-12-20T07:23:29;98166.53;;;5.26;100.00
80976;BME280;70437;49.466;11.002;2023-12-20T07:26:00;98184.63;;;5.16;100.00
80976;BME280;70437;49.466;11.002;2023-12-20T07:28:31;98179.75;;;5.19;100.00
80976;BME280;70437;49.466;11.002;2023-12-20T07:31:01;98186.50;;;5.22;100.00
80976;BME280;70437;49.466;11.002;2023-12-20T07:33:31;98177.84;;;5.13;100.00
80976;BME280;70437;49.466;11.002;2023-12-20T07:36:06;98182.31;;;5.13;100.00
80976;BME280;70437;49.466;11.002;2023-12-20T07:38:38;98173.63;;;5.19;100.00
80976;BME280;70437;49.466;11.002;2023-12-20T07:41:11;98176.03;;;5.14;100.00
80976;BME280;70437;49.466;11.002;2023-12-20T07:43:40;98166.97;;;5.29;100.00
80976;BME280;70437;49.466;11.002;2023-12-20T07:46:11;98173.78;;;5.17;100.00
80976;BME280;70437;49.466;11.002;2023-12-20T07:48:45;98186.34;;;5.23;100.00
80976;BME280;70437;49.466;11.002;2023-12-20T07:51:22;98183.22;;;5.20;100.00
80976;BME280;70437;49.466;11.002;2023-12-20T07:53:54;98181.16;;;5.37;100.00
80976;BME280;70437;49.466;11.002;2023-12-20T07:56:26;98184.44;;;5.39;100.00
80976;BME280;70437;49.466;11.002;2023-12-20T07:58:58;98194.72;;;5.42;100.00
80976;BME280;70437;49.466;11.002;2023-12-20T08:01:29;98199.00;;;5.43;100.00
80976;BME280;70437;49.466;11.002;2023-12-20T08:03:58;98196.78;;;5.46;100.00
80976;BME280;70437;49.466;11.002;2023-12-20T08:06:29;98205.63;;;5.53;100.00
80976;BME280;70437;49.466;11.002;2023-12-20T08:09:03;98196.03;;;5.52;100.00
80976;BME280;70437;49.466;11.002;2023-12-20T08:11:35;98202.28;;;5.66;100.00
80976;BME280;70437;49.466;11.002;2023-12-20T08:14:06;98192.34;;;5.53;100.00
80976;BME280;70437;49.466;11.002;2023-12-20T08:16:36;98191.97;;;5.56;100.00
80976;BME280;70437;49.466;11.002;2023-12-20T08:19:11;98210.09;;;5.68;100.00
80976;BME280;70437;49.466;11.002;2023-12-20T08:21:43;98204.41;;;5.49;100.00
80976;BME280;70437;49.466;11.002;2023-12-20T08:24:15;98197.53;;;5.40;100.00
80976;BME280;70437;49.466;11.002;2023-12-20T08:26:47;98189.97;;;5.58;100.00
80976;BME280;70437;49.466;11.002;2023-12-20T08:29:19;98202.50;;;5.65;100.00
80976;BME280;70437;49.466;11.002;2023-12-20T08:31:54;98209.19;;;5.61;100.00
80976;BME280;70437;49.466;11.002;2023-12-20T08:34:27;98209.91;;;5.69;100.00
80976;BME280;70437;49.466;11.002;2023-12-20T08:36:58;98201.66;;;5.64;100.00
80976;BME280;70437;49.466;11.002;2023-12-20T08:39:30;98192.78;;;5.57;100.00
80976;BME280;70437;49.466;11.002;2023-12-20T08:42:01;98195.53;;;5.64;100.00
80976;BME280;70437;49.466;11.002;2023-12-20T08:44:31;98195.56;;;5.49;100.00
80976;BME280;70437;49.466;11.002;2023-12-20T08:47:15;98204.06;;;5.59;100.00
80976;BME280;70437;49.466;11.002;2023-12-20T08:49:48;98201.34;;;5.52;100.00
80976;BME280;70437;49.466;11.002;2023-12-20T08:52:18;98197.81;;;5.45;100.00
80976;BME280;70437;49.466;11.002;2023-12-20T08:54:50;98207.47;;;5.53;100.00
80976;BME280;70437;49.466;11.002;2023-12-20T08:57:24;98202.81;;;5.55;100.00
80976;BME280;70437;49.466;11.002;2023-12-20T08:59:56;98203.75;;;5.47;100.00
80976;BME280;70437;49.466;11.002;2023-12-20T09:02:26;98196.47;;;6.27;100.00
80976;BME280;70437;49.466;11.002;2023-12-20T09:04:57;98193.75;;;5.71;100.00
80976;BME280;70437;49.466;11.002;2023-12-20T09:07:31;98192.31;;;6.18;100.00
80976;BME280;70437;49.466;11.002;2023-12-20T09:10:02;98196.06;;;6.02;100.00
80976;BME280;70437;49.466;11.002;2023-12-20T09:12:33;98195.69;;;5.83;100.00
80976;BME280;70437;49.466;11.002;2023-12-20T09:15:13;98201.03;;;5.41;100.00
80976;BME280;70437;49.466;11.002;2023-12-20T09:17:47;98210.91;;;5.90;100.00
80976;BME280;70437;49.466;11.002;2023-12-20T09:20:23;98205.44;;;6.95;100.00
80976;BME280;70437;49.466;11.002;2023-12-20T09:22:56;98206.38;;;7.22;100.00
80976;BME280;70437;49.466;11.002;2023-12-20T09:25:28;98212.84;;;7.00;100.00
80976;BME280;70437;49.466;11.002;2023-12-20T09:27:59;98207.06;;;7.51;100.00
80976;BME280;70437;49.466;11.002;2023-12-20T09:30:31;98197.19;;;7.45;100.00
80976;BME280;70437;49.466;11.002;2023-12-20T09:33:03;98204.56;;;7.29;100.00
80976;BME280;70437;49.466;11.002;2023-12-20T09:35:35;98210.13;;;7.54;100.00
80976;BME280;70437;49.466;11.002;2023-12-20T09:38:12;98207.25;;;7.49;100.00
80976;BME280;70437;49.466;11.002;2023-12-20T09:40:49;98217.78;;;8.24;100.00
80976;BME280;70437;49.466;11.002;2023-12-20T09:43:20;98226.53;;;7.45;100.00
80976;BME280;70437;49.466;11.002;2023-12-20T09:46:00;98235.03;;;7.88;100.00
80976;BME280;70437;49.466;11.002;2023-12-20T09:48:39;98225.16;;;8.55;100.00
80976;BME280;70437;49.466;11.002;2023-12-20T09:51:12;98233.00;;;7.16;100.00
80976;BME280;70437;49.466;11.002;2023-12-20T09:53:43;98233.03;;;6.46;100.00
80976;BME280;70437;49.466;11.002;2023-12-20T09:56:17;98219.41;;;7.65;100.00
80976;BME280;70437;49.466;11.002;2023-12-20T09:58:50;98222.09;;;7.92;100.00
80976;BME280;70437;49.466;11.002;2023-12-20T10:01:22;98225.75;;;7.64;100.00
80976;BME280;70437;49.466;11.002;2023-12-20T10:03:54;98223.50;;;7.61;100.00
80976;BME280;70437;49.466;11.002;2023-12-20T10:06:38;98226.59;;;7.98;100.00
80976;BME280;70437;49.466;11.002;2023-12-20T10:09:09;98228.84;;;7.94;100.00
80976;BME280;70437;49.466;11.002;2023-12-20T10:11:40;98224.97;;;8.10;100.00
80976;BME280;70437;49.466;11.002;2023-12-20T10:14:13;98225.38;;;7.06;100.00
80976;BME280;70437;49.466;11.002;2023-12-20T10:16:44;98224.91;;;6.96;100.00
80976;BME280;70437;49.466;11.002;2023-12-20T10:19:16;98206.56;;;6.66;100.00
80976;BME280;70437;49.466;11.002;2023-12-20T10:21:47;98210.47;;;6.70;100.00
80976;BME280;70437;49.466;11.002;2023-12-20T10:24:17;98206.97;;;6.70;100.00
80976;BME280;70437;49.466;11.002;2023-12-20T10:27:02;98205.13;;;6.70;100.00
80976;BME280;70437;49.466;11.002;2023-12-20T10:29:35;98201.16;;;6.59;100.00
80976;BME280;70437;49.466;11.002;2023-12-20T10:32:22;98201.88;;;6.75;100.00
80976;BME280;70437;49.466;11.002;2023-12-20T10:34:54;98195.81;;;6.88;100.00
80976;BME280;70437;49.466;11.002;2023-12-20T10:37:28;98197.22;;;6.83;100.00
80976;BME280;70437;49.466;11.002;2023-12-20T10:40:03;98185.25;;;6.73;100.00
80976;BME280;70437;49.466;11.002;2023-12-20T10:42:38;98191.03;;;6.42;100.00
80976;BME280;70437;49.466;11.002;2023-12-20T10:45:10;98190.19;;;6.35;100.00
80976;BME280;70437;49.466;11.002;2023-12-20T10:47:41;98189.84;;;6.44;100.00
80976;BME280;70437;49.466;11.002;2023-12-20T10:50:14;98193.84;;;6.33;100.00
80976;BME280;70437;49.466;11.002;2023-12-20T10:52:47;98181.13;;;6.29;100.00
80976;BME280;70437;49.466;11.002;2023-12-20T10:55:25;98182.34;;;6.26;100.00
80976;BME280;70437;49.466;11.002;2023-12-20T10:58:01;98182.16;;;6.28;100.00
80976;BME280;70437;49.466;11.002;2023-12-20T11:00:31;98178.31;;;6.37;100.00
80976;BME280;70437;49.466;11.002;2023-12-20T11:03:05;98182.88;;;6.43;100.00
80976;BME280;70437;49.466;11.002;2023-12-20T11:05:47;98175.50;;;6.45;100.00
80976;BME280;70437;49.466;11.002;2023-12-20T11:08:27;98174.31;;;6.48;100.00
80976;BME280;70437;49.466;11.002;2023-12-20T11:11:01;98166.06;;;6.43;100.00
80976;BME280;70437;49.466;11.002;2023-12-20T11:13:43;98165.91;;;6.51;100.00
80976;BME280;70437;49.466;11.002;2023-12-20T11:16:16;98165.38;;;6.27;100.00
80976;BME280;70437;49.466;11.002;2023-12-20T11:18:51;98167.16;;;6.20;100.00
80976;BME280;70437;49.466;11.002;2023-12-20T11:21:21;98178.78;;;5.91;100.00
80976;BME280;70437;49.466;11.002;2023-12-20T11:23:53;98162.28;;;5.96;100.00
80976;BME280;70437;49.466;11.002;2023-12-20T11:26:27;98175.59;;;5.96;100.00
80976;BME280;70437;49.466;11.002;2023-12-20T11:29:30;98162.31;;;6.02;100.00
80976;BME280;70437;49.466;11.002;2023-12-20T11:32:02;98152.69;;;5.73;100.00
80976;BME280;70437;49.466;11.002;2023-12-20T11:34:33;98163.03;;;5.90;100.00
80976;BME280;70437;49.466;11.002;2023-12-20T11:37:05;98149.19;;;5.94;100.00
80976;BME280;70437;49.466;11.002;2023-12-20T11:39:38;98141.72;;;6.11;100.00
80976;BME280;70437;49.466;11.002;2023-12-20T11:42:10;98140.38;;;6.22;100.00
80976;BME280;70437;49.466;11.002;2023-12-20T11:44:42;98145.03;;;6.54;100.00
80976;BME280;70437;49.466;11.002;2023-12-20T11:47:20;98144.59;;;6.44;100.00
80976;BME280;70437;49.466;11.002;2023-12-20T11:49:53;98149.28;;;6.42;100.00
80976;BME280;70437;49.466;11.002;2023-12-20T11:52:28;98145.03;;;6.20;100.00
80976;BME280;70437;49.466;11.002;2023-12-20T11:55:00;98145.53;;;6.02;100.00
80976;BME280;70437;49.466;11.002;2023-12-20T11:57:30;98143.78;;;6.44;100.00
80976;BME280;70437;49.466;11.002;2023-12-20T12:00:07;98139.88;;;6.46;100.00
80976;BME280;70437;49.466;11.002;2023-12-20T12:02:40;98147.78;;;5.98;100.00
80976;BME280;70437;49.466;11.002;2023-12-20T12:05:15;98154.19;;;6.11;100.00
80976;BME280;70437;49.466;11.002;2023-12-20T12:07:45;98142.97;;;6.15;100.00
80976;BME280;70437;49.466;11.002;2023-12-20T12:10:18;98143.28;;;5.99;100.00
80976;BME280;70437;49.466;11.002;2023-12-20T12:12:50;98149.16;;;6.22;100.00
80976;BME280;70437;49.466;11.002;2023-12-20T12:15:25;98144.31;;;6.32;100.00
80976;BME280;70437;49.466;11.002;2023-12-20T12:17:56;98132.91;;;6.04;100.00
80976;BME280;70437;49.466;11.002;2023-12-20T12:20:28;98137.13;;;6.26;100.00
80976;BME280;70437;49.466;11.002;2023-12-20T12:22:58;98133.59;;;6.19;100.00
80976;BME280;70437;49.466;11.002;2023-12-20T12:25:29;98130.06;;;6.47;100.00
80976;BME280;70437;49.466;11.002;2023-12-20T12:28:01;98123.06;;;6.39;100.00
80976;BME280;70437;49.466;11.002;2023-12-20T12:30:32;98121.81;;;6.35;100.00
80976;BME280;70437;49.466;11.002;2023-12-20T12:33:12;98121.47;;;6.45;100.00
80976;BME280;70437;49.466;11.002;2023-12-20T12:35:45;98122.28;;;6.45;100.00
80976;BME280;70437;49.466;11.002;2023-12-20T12:38:19;98112.53;;;6.24;100.00
80976;BME280;70437;49.466;11.002;2023-12-20T12:40:51;98124.50;;;6.42;100.00
80976;BME280;70437;49.466;11.002;2023-12-20T12:43:21;98121.03;;;6.41;100.00
80976;BME280;70437;49.466;11.002;2023-12-20T12:45:54;98132.53;;;6.48;100.00
80976;BME280;70437;49.466;11.002;2023-12-20T12:48:25;98129.06;;;6.54;100.00
80976;BME280;70437;49.466;11.002;2023-12-20T12:50:56;98129.72;;;6.63;100.00
80976;BME280;70437;49.466;11.002;2023-12-20T12:53:28;98125.75;;;6.46;100.00
80976;BME280;70437;49.466;11.002;2023-12-20T12:55:58;98124.56;;;6.48;100.00
80976;BME280;70437;49.466;11.002;2023-12-20T12:58:28;98143.66;;;6.65;100.00
80976;BME280;70437;49.466;11.002;2023-12-20T13:01:01;98121.47;;;6.45;100.00
80976;BME280;70437;49.466;11.002;2023-12-20T13:03:33;98138.69;;;6.55;100.00
80976;BME280;70437;49.466;11.002;2023-12-20T13:06:08;98135.16;;;6.42;100.00
80976;BME280;70437;49.466;11.002;2023-12-20T13:08:41;98139.22;;;6.38;100.00
80976;BME280;70437;49.466;11.002;2023-12-20T13:11:12;98118.59;;;6.12;100.00
80976;BME280;70437;49.466;11.002;2023-12-20T13:13:41;98127.88;;;6.22;100.00